Brunswick Golden Isles Airport
KBQK : now visible

Airfield :











YOU CAN JOIN US ON...

 
LOGIN :

Register | Disclaimer

   EN    FR    IT 

 









Legend :    VFR   Marginal VFR   IFR   Intensive IFR   Very Intensive IFR
Visi :
Ceiling :
>= 8 km
>= 3000ft
5 to 8 km
1000 to 3000 ft
1500m to 5 km
500 to 1000 ft
800 to 1500m
200 to 500 ft
< 800m
< 200 ft
Symbols :   Thunderstorms  Fog  Heavy snow  Heavy precipitations  Wind > 20 kt






- Airport Elevation : 26 ft
- IATA code : BQK


KBQK - Brunswick Golden Isles

CURRENT METAR :
  • 100315Z AUTO 24007KT 10SM CLR 25/24 A2991 RMK AO2 LTG DSNT S T02490244

EXPIRED METARs :
  • 100255Z AUTO 23003KT 10SM CLR 25/24 A2990 RMK AO2 LTG DSNT S T02520245
  • 100235Z AUTO 26003KT 10SM CLR 25/24 A2989 RMK AO2 LTG DSNT S T02510245
  • 100215Z AUTO 24005KT 10SM CLR 25/24 A2988 RMK AO2 T02500244
  • 100155Z AUTO 24006KT 10SM CLR 25/24 A2988 RMK AO2 T02530244
  • 100135Z AUTO 24003KT 10SM CLR 25/25 A2987 RMK AO2 LTG DSNT S T02540246
  • 100115Z AUTO 24004KT 10SM SCT090 26/25 A2987 RMK AO2 T02550247
  • 100055Z AUTO 00000KT 10SM SCT090 26/25 A2987 RMK AO2 LTG DSNT S T02600249
  • 100035Z AUTO 25004KT 10SM CLR 27/25 A2987 RMK AO2 LTG DSNT S T02680247

TAF N/A
KZJX FIR / North America



MET'MAP, your aeronautical weather chart ! - Copyright ORBIFLY December 2007 - Disclaimer

ORBIFLY MET'MAP TEAM :

Programming & Development : Alexandra Zaïnal
Concept & original design : Baudouin d'Aumeries
Assistance for programming : Marc-Olivier Méhu
Technical & hardware support : Manuel Goepfert

Contact : metmap@orbifly.com




SOURCES & CREDITS :

   NOAA       Earth
Advisory